Time;durP1;ratioP1;P1;durP2;ratioP2;P2;SDS_P1;SDS_P2;PMS_P1;PMS_P2;Temp;Humidity;BMP_temperature;BMP_pressure;BME280_temperature;BME280_humidity;BME280_pressure;Samples;Min_cycle;Max_cycle;Signal;HPM_P1;HPM_P2
2023/03/11 00:01:25;;;;;;;;;;;;;;;17.04;47.50;99176.34;5079045;28;1035;-49
2023/03/11 00:03:50;;;;;;;;;;;;;;;17.52;47.36;99180.28;5077997;28;1143;-46
2023/03/11 00:06:16;;;;;;;;;;;;;;;16.74;48.22;99186.97;5055194;28;860;-48
2023/03/11 00:08:41;;;;;;;;;;;;;;;16.68;47.24;99183.56;5078814;28;1086;-49
2023/03/11 00:11:07;;;;;;;;;;;;;;;16.55;46.35;99182.50;5078740;28;1163;-47
2023/03/11 00:13:32;;;;;;;;;;;;;;;16.83;47.23;99189.78;5079048;28;1194;-49
2023/03/11 00:15:58;;;;;;;;;;;;;;;16.80;47.32;99184.91;5061350;28;1265;-49
2023/03/11 00:18:25;;;;;;;;;;;;;;;16.81;47.50;99181.06;5067942;28;1038;-49
2023/03/11 00:20:51;;;;;;;;;;;;;;;17.89;47.05;99178.06;5066217;28;1036;-49
2023/03/11 00:23:16;;;;;;;;;;;;;;;17.06;47.87;99174.09;5078504;28;1248;-47
2023/03/11 00:25:43;;;;;;;;;;;;;;;16.72;47.52;99167.28;5078272;28;2151;-47
2023/03/11 00:28:09;;;;;;;;;;;;;;;16.55;46.98;99159.72;5079025;28;1117;-49
2023/03/11 00:30:35;;;;;;;;;;;;;;;16.49;46.24;99163.72;5050026;28;1421;-48
2023/03/11 00:33:01;;;;;;;;;;;;;;;16.36;45.97;99155.25;5072803;28;1131;-47
2023/03/11 00:35:28;;;;;;;;;;;;;;;16.96;46.51;99146.91;5078017;28;1197;-48
2023/03/11 00:37:54;;;;;;;;;;;;;;;16.77;47.52;99146.00;5078635;28;1254;-44
2023/03/11 00:40:20;;;;;;;;;;;;;;;16.47;46.85;99141.28;5077735;28;1063;-49
2023/03/11 00:42:46;;;;;;;;;;;;;;;16.69;47.03;99137.69;5066390;28;1020;-47
2023/03/11 00:45:11;;;;;;;;;;;;;;;16.80;47.76;99141.00;5066150;28;1961;-47
2023/03/11 00:47:37;;;;;;;;;;;;;;;16.50;47.10;99143.41;5077806;28;1086;-44
2023/03/11 00:50:03;;;;;;;;;;;;;;;16.41;46.51;99137.84;5078589;28;1078;-46
2023/03/11 00:52:28;;;;;;;;;;;;;;;16.20;46.13;99127.38;5059227;28;1291;-44
2023/03/11 00:54:54;;;;;;;;;;;;;;;16.63;46.55;99126.03;5046599;28;1187;-46
2023/03/11 00:57:20;;;;;;;;;;;;;;;16.73;47.01;99122.22;5060022;28;1173;-45
2023/03/11 00:59:46;;;;;;;;;;;;;;;16.42;46.78;99123.00;5059936;28;1590;-44
2023/03/11 01:02:11;;;;;;;;;;;;;;;17.49;46.55;99120.44;5077476;28;1043;-45
2023/03/11 01:04:37;;;;;;;;;;;;;;;16.74;47.49;99110.94;5077717;28;1910;-47
2023/03/11 01:07:03;;;;;;;;;;;;;;;16.45;47.00;99102.38;5065583;28;1159;-48
2023/03/11 01:09:29;;;;;;;;;;;;;;;16.37;46.25;99107.50;5059618;28;1107;-43
2023/03/11 01:11:54;;;;;;;;;;;;;;;17.38;46.89;99098.75;5077918;28;1179;-47
2023/03/11 01:14:20;;;;;;;;;;;;;;;16.86;47.34;99095.81;5059672;28;1154;-42
2023/03/11 01:16:46;;;;;;;;;;;;;;;16.50;47.02;99074.81;5077367;28;1087;-47
2023/03/11 01:19:11;;;;;;;;;;;;;;;16.27;46.67;99080.34;5064914;28;1092;-45
2023/03/11 01:21:37;;;;;;;;;;;;;;;16.26;45.98;99067.75;5071010;28;1012;-45
2023/03/11 01:24:03;;;;;;;;;;;;;;;17.28;46.93;99077.09;5077416;28;1906;-42
2023/03/11 01:26:30;;;;;;;;;;;;;;;16.63;47.23;99079.38;5077385;28;1043;-47
2023/03/11 01:28:55;;;;;;;;;;;;;;;16.31;46.79;99067.59;5058703;28;1145;-45
2023/03/11 01:31:21;;;;;;;;;;;;;;;16.26;46.20;99075.97;5063542;28;1125;-44
2023/03/11 01:33:46;;;;;;;;;;;;;;;17.49;46.29;99070.97;5046037;28;1197;-48
2023/03/11 01:36:12;;;;;;;;;;;;;;;16.60;47.45;99074.53;5059383;28;1213;-47
2023/03/11 01:38:37;;;;;;;;;;;;;;;16.31;47.06;99064.84;5076939;28;1036;-45
2023/03/11 01:41:03;;;;;;;;;;;;;;;17.23;46.81;99067.03;5077339;28;1123;-46
2023/03/11 01:43:44;;;;;;;;;;;;;;;16.63;47.39;99065.66;5045635;28;1265;-47
2023/03/11 01:46:58;;;;;;;;;;;;;;;18.26;46.08;99065.84;5072529;28;1126;-47
2023/03/11 01:49:29;;;;;;;;;;;;;;;17.20;47.75;99066.88;5059012;28;1355;-48
2023/03/11 01:51:56;;;;;;;;;;;;;;;16.82;47.39;99059.94;5059068;28;1122;-46
2023/03/11 01:54:26;;;;;;;;;;;;;;;16.56;46.76;99057.91;5041086;28;1240;-46
2023/03/11 01:56:51;;;;;;;;;;;;;;;16.87;47.19;99057.06;5059107;28;1277;-48
2023/03/11 01:59:18;;;;;;;;;;;;;;;17.20;47.54;99047.66;5059006;28;1312;-47
2023/03/11 02:01:47;;;;;;;;;;;;;;;16.68;47.54;99053.75;5076480;28;1167;-47
2023/03/11 02:04:13;;;;;;;;;;;;;;;16.57;46.89;99061.44;5059017;28;1973;-44
2023/03/11 02:06:38;;;;;;;;;;;;;;;16.45;46.10;99056.53;5053619;28;1106;-48
2023/03/11 02:09:04;;;;;;;;;;;;;;;16.31;45.90;99045.66;5041640;28;1367;-46
2023/03/11 02:11:30;;;;;;;;;;;;;;;16.26;45.61;99037.56;5059015;28;1198;-44
2023/03/11 02:13:57;;;;;;;;;;;;;;;17.11;46.21;99036.66;5058343;28;1150;-47
2023/03/11 02:16:24;;;;;;;;;;;;;;;16.63;47.41;99032.75;5058667;28;1316;-49
2023/03/11 02:18:49;;;;;;;;;;;;;;;16.41;46.58;99028.94;5052945;28;1122;-48
2023/03/11 02:21:15;;;;;;;;;;;;;;;16.89;46.94;99032.06;5048820;28;1111;-45
2023/03/11 02:23:50;;;;;;;;;;;;;;;16.97;47.48;99030.47;5058344;28;2181;-48
2023/03/11 02:26:27;;;;;;;;;;;;;;;16.56;47.43;99024.97;5058101;28;1979;-48
2023/03/11 02:28:52;;;;;;;;;;;;;;;16.36;46.72;99017.28;5045343;28;1074;-44
2023/03/11 02:31:18;;;;;;;;;;;;;;;16.31;46.26;99020.97;5049701;28;1132;-47
2023/03/11 02:33:44;;;;;;;;;;;;;;;16.89;47.17;99026.59;5060691;28;1024;-49
2023/03/11 02:36:29;;;;;;;;;;;;;;;16.47;46.97;99021.38;5027370;28;1549;-47
2023/03/11 02:38:56;;;;;;;;;;;;;;;16.24;46.35;99004.97;5050978;28;1259;-46
2023/03/11 02:41:21;;;;;;;;;;;;;;;16.20;45.90;98995.75;5058617;28;1089;-44
2023/03/11 02:43:47;;;;;;;;;;;;;;;17.34;46.50;98992.59;5045557;28;1075;-46
2023/03/11 02:46:15;;;;;;;;;;;;;;;16.72;47.54;98994.38;5066858;28;1918;-43
2023/03/11 02:48:40;;;;;;;;;;;;;;;16.42;47.43;98992.16;5058320;28;1107;-46
2023/03/11 02:51:06;;;;;;;;;;;;;;;17.55;46.99;98999.03;5058549;28;1147;-48
2023/03/11 02:53:33;;;;;;;;;;;;;;;16.76;47.51;98990.66;5027317;28;1595;-48
2023/03/11 02:55:59;;;;;;;;;;;;;;;16.85;47.49;98982.44;5039652;28;1144;-46
2023/03/11 02:58:25;;;;;;;;;;;;;;;17.04;47.80;98973.13;5047285;28;1111;-45
2023/03/11 03:00:50;;;;;;;;;;;;;;;16.63;47.53;98971.56;5024101;28;1224;-45
2023/03/11 03:03:17;;;;;;;;;;;;;;;16.49;46.78;98975.22;5058371;28;1349;-45
2023/03/11 03:05:44;;;;;;;;;;;;;;;16.47;45.99;98979.44;5057804;28;1906;-48
2023/03/11 03:08:10;;;;;;;;;;;;;;;17.38;46.93;98975.13;5044207;28;1130;-45
2023/03/11 03:10:37;;;;;;;;;;;;;;;16.65;47.42;98975.63;5053219;28;1503;-46
2023/03/11 03:13:03;;;;;;;;;;;;;;;18.32;46.43;98979.22;5076225;28;1168;-48
2023/03/11 03:15:29;;;;;;;;;;;;;;;17.83;47.72;98970.41;5057817;28;1291;-48
2023/03/11 03:17:54;;;;;;;;;;;;;;;17.09;47.92;98960.06;5075400;28;1117;-48
2023/03/11 03:20:21;;;;;;;;;;;;;;;16.84;47.28;98958.84;5043599;28;1337;-49
2023/03/11 03:22:50;;;;;;;;;;;;;;;16.68;46.70;98950.28;5047024;28;1293;-47
2023/03/11 03:25:18;;;;;;;;;;;;;;;16.52;46.57;98947.16;5034159;28;1905;-49
2023/03/11 03:27:44;;;;;;;;;;;;;;;16.55;45.86;98945.69;5075515;28;1003;-47
2023/03/11 03:30:10;;;;;;;;;;;;;;;17.17;47.47;98943.94;5057531;28;1245;-43
2023/03/11 03:32:37;;;;;;;;;;;;;;;16.70;47.45;98944.47;5042334;28;1213;-47
2023/03/11 03:35:04;;;;;;;;;;;;;;;16.42;46.57;98945.53;5055683;28;1400;-47
2023/03/11 03:37:48;;;;;;;;;;;;;;;17.39;46.99;98951.19;5060742;28;1172;-47
2023/03/11 03:40:14;;;;;;;;;;;;;;;16.71;47.40;98937.84;5041621;28;1392;-48
2023/03/11 03:42:40;;;;;;;;;;;;;;;16.57;46.72;98940.72;5057757;28;1157;-47
2023/03/11 03:45:06;;;;;;;;;;;;;;;16.41;46.05;98940.31;5072722;28;1910;-44
2023/03/11 03:47:32;;;;;;;;;;;;;;;16.30;45.75;98939.00;5057417;28;1228;-45
2023/03/11 03:49:58;;;;;;;;;;;;;;;16.22;45.21;98932.38;5057446;28;1131;-47
2023/03/11 03:52:25;;;;;;;;;;;;;;;16.87;46.63;98935.47;5058792;28;1027;-48
2023/03/11 03:54:50;;;;;;;;;;;;;;;16.45;46.81;98932.28;5061464;28;1388;-48
2023/03/11 03:57:16;;;;;;;;;;;;;;;17.24;46.88;98931.31;5041771;28;1075;-46
2023/03/11 03:59:44;;;;;;;;;;;;;;;16.80;47.66;98932.38;5047444;28;1261;-49
2023/03/11 04:02:10;;;;;;;;;;;;;;;16.54;46.89;98935.88;5046278;28;1283;-49
2023/03/11 04:04:36;;;;;;;;;;;;;;;17.23;47.29;98923.41;5078896;28;1983;-48
2023/03/11 04:07:03;;;;;;;;;;;;;;;16.75;47.49;98923.16;5078096;28;1070;-48
2023/03/11 04:09:28;;;;;;;;;;;;;;;16.58;46.82;98915.69;5041240;28;1093;-47
2023/03/11 04:11:54;;;;;;;;;;;;;;;16.38;46.39;98917.09;5058434;28;1091;-49
2023/03/11 04:14:20;;;;;;;;;;;;;;;17.34;46.90;98915.66;5078791;28;1063;-41
2023/03/11 04:16:52;;;;;;;;;;;;;;;16.57;47.39;98913.28;5078435;28;1470;-44
2023/03/11 04:19:17;;;;;;;;;;;;;;;16.40;46.84;98912.09;5076691;28;1155;-44
2023/03/11 04:21:43;;;;;;;;;;;;;;;16.21;46.32;98898.63;5045159;28;1447;-42
2023/03/11 04:24:10;;;;;;;;;;;;;;;16.21;45.79;98897.84;5060476;28;1985;-42
2023/03/11 04:26:37;;;;;;;;;;;;;;;16.06;45.66;98883.44;5060934;28;1168;-46
2023/03/11 04:29:06;;;;;;;;;;;;;;;16.15;45.61;98877.19;5060219;28;1210;-40
2023/03/11 04:31:37;;;;;;;;;;;;;;;16.93;46.93;98882.84;5056583;28;1111;-45
2023/03/11 04:34:05;;;;;;;;;;;;;;;16.35;47.15;98878.53;5058853;28;1011;-43
2023/03/11 04:36:30;;;;;;;;;;;;;;;16.16;46.54;98876.84;5059895;28;1116;-42
2023/03/11 04:38:56;;;;;;;;;;;;;;;16.17;45.99;98880.38;5078343;28;1138;-44
2023/03/11 04:41:22;;;;;;;;;;;;;;;16.81;46.95;98877.16;5059723;28;1211;-49
2023/03/11 04:43:48;;;;;;;;;;;;;;;16.45;46.87;98871.94;5034528;28;1270;-45
2023/03/11 04:46:14;;;;;;;;;;;;;;;18.05;46.33;98871.22;5033275;28;1981;-46
2023/03/11 04:48:40;;;;;;;;;;;;;;;17.14;48.06;98873.16;5052778;28;1308;-46
2023/03/11 04:51:06;;;;;;;;;;;;;;;16.61;47.75;98886.81;5031631;28;1207;-42
2023/03/11 04:53:32;;;;;;;;;;;;;;;16.45;46.78;98891.94;5039586;28;1154;-47
2023/03/11 04:55:58;;;;;;;;;;;;;;;17.27;47.42;98877.69;5038433;28;1313;-48
2023/03/11 04:58:24;;;;;;;;;;;;;;;16.68;47.54;98876.19;5040410;28;1297;-48
2023/03/11 05:00:50;;;;;;;;;;;;;;;16.47;46.84;98880.66;5053073;28;1154;-46
2023/03/11 05:03:16;;;;;;;;;;;;;;;16.34;46.24;98877.72;5058290;28;1004;-43
2023/03/11 05:05:42;;;;;;;;;;;;;;;17.24;47.16;98861.84;5058135;28;1910;-50
2023/03/11 05:08:08;;;;;;;;;;;;;;;16.67;47.62;98866.31;5039467;28;1128;-48
2023/03/11 05:10:34;;;;;;;;;;;;;;;16.39;47.09;98877.56;5039950;28;1154;-47
2023/03/11 05:13:04;;;;;;;;;;;;;;;17.36;47.02;98858.44;5040282;28;1197;-44
2023/03/11 05:15:33;;;;;;;;;;;;;;;16.62;47.50;98863.75;5039792;28;1326;-49
2023/03/11 05:18:01;;;;;;;;;;;;;;;16.39;47.05;98861.09;5040193;28;1127;-50
2023/03/11 05:20:28;;;;;;;;;;;;;;;16.32;46.11;98858.00;5039367;28;1195;-44
2023/03/11 05:22:54;;;;;;;;;;;;;;;17.66;46.59;98856.59;5039857;28;1355;-48
2023/03/11 05:25:19;;;;;;;;;;;;;;;16.71;47.79;98853.56;5039598;28;1906;-48
2023/03/11 05:27:45;;;;;;;;;;;;;;;16.47;47.15;98861.47;5057796;28;1124;-47
2023/03/11 05:30:12;;;;;;;;;;;;;;;16.46;46.19;98871.59;5039205;28;1195;-44
2023/03/11 05:32:40;;;;;;;;;;;;;;;17.17;47.07;98864.28;5039416;28;1352;-43
2023/03/11 05:35:06;;;;;;;;;;;;;;;16.48;47.37;98858.41;5039615;28;1137;-45
2023/03/11 05:37:32;;;;;;;;;;;;;;;16.48;46.32;98865.81;5039506;28;1378;-46
2023/03/11 05:40:00;;;;;;;;;;;;;;;17.48;46.50;98860.53;5039600;28;1127;-44
2023/03/11 05:42:26;;;;;;;;;;;;;;;16.53;47.63;98862.91;5057119;28;1099;-46
2023/03/11 05:44:53;;;;;;;;;;;;;;;16.46;46.96;98862.59;5038707;28;1971;-47
2023/03/11 05:47:21;;;;;;;;;;;;;;;16.32;46.32;98862.72;5039355;28;1123;-48
2023/03/11 05:49:48;;;;;;;;;;;;;;;16.89;46.52;98867.34;5039246;28;1150;-46
2023/03/11 05:52:15;;;;;;;;;;;;;;;16.84;47.38;98867.47;5039133;28;1135;-43
2023/03/11 05:54:41;;;;;;;;;;;;;;;16.50;47.23;98860.81;5039493;28;1143;-47
2023/03/11 05:57:07;;;;;;;;;;;;;;;16.33;46.55;98861.59;5057038;28;1020;-47
2023/03/11 05:59:34;;;;;;;;;;;;;;;16.32;45.95;98866.25;5039236;28;1415;-47
2023/03/11 06:02:03;;;;;;;;;;;;;;;17.13;46.69;98872.34;5039828;28;1108;-47
2023/03/11 06:04:29;;;;;;;;;;;;;;;16.54;47.12;98867.28;5042362;28;1910;-49
2023/03/11 06:06:55;;;;;;;;;;;;;;;16.38;46.39;98869.66;5056670;28;1079;-48
2023/03/11 06:09:23;;;;;;;;;;;;;;;16.95;46.93;98863.31;5038680;28;1139;-45
2023/03/11 06:11:50;;;;;;;;;;;;;;;16.81;47.28;98857.94;5037977;28;1382;-48
2023/03/11 06:14:18;;;;;;;;;;;;;;;17.28;46.81;98857.34;5038393;28;1119;-46
2023/03/11 06:16:47;;;;;;;;;;;;;;;16.92;47.48;98855.72;5038668;28;1154;-43
2023/03/11 06:19:12;;;;;;;;;;;;;;;16.69;48.36;98852.28;5038859;28;1299;-44
2023/03/11 06:21:43;;;;;;;;;;;;;;;16.47;48.73;98845.00;5037904;28;1468;-46
2023/03/11 06:24:08;;;;;;;;;;;;;;;16.37;49.27;98838.69;5038019;28;1977;-44
2023/03/11 06:26:35;;;;;;;;;;;;;;;16.26;49.33;98831.88;5038507;28;1872;-43
2023/03/11 06:29:01;;;;;;;;;;;;;;;16.17;49.80;98831.03;5038226;28;1187;-42
2023/03/11 06:31:27;;;;;;;;;;;;;;;16.07;50.27;98826.66;5038465;28;1265;-46
2023/03/11 06:33:58;;;;;;;;;;;;;;;15.99;50.43;98828.25;5046702;28;1396;-47
2023/03/11 06:36:24;;;;;;;;;;;;;;;15.95;50.63;98823.69;5037462;28;1107;-42
2023/03/11 06:38:50;;;;;;;;;;;;;;;15.88;50.51;98819.50;5037968;28;1227;-48
2023/03/11 06:41:16;;;;;;;;;;;;;;;15.77;51.25;98831.84;5046868;28;1107;-46
2023/03/11 06:43:41;;;;;;;;;;;;;;;15.77;51.16;98834.56;5055728;28;1244;-47
2023/03/11 06:46:11;;;;;;;;;;;;;;;15.72;51.17;98826.47;5037770;28;1968;-50
2023/03/11 06:48:38;;;;;;;;;;;;;;;15.69;51.24;98816.94;5039192;28;1222;-47
2023/03/11 06:51:03;;;;;;;;;;;;;;;15.56;51.63;98813.19;5041079;28;1267;-47
2023/03/11 06:53:29;;;;;;;;;;;;;;;15.55;51.77;98814.31;5040871;28;1280;-48
2023/03/11 06:55:59;;;;;;;;;;;;;;;15.49;51.89;98809.31;5062793;28;1159;-47
2023/03/11 06:58:25;;;;;;;;;;;;;;;16.36;50.08;98812.38;5037191;28;1927;-46
2023/03/11 07:00:50;;;;;;;;;;;;;;;16.83;48.98;98803.53;5052857;28;1286;-47
2023/03/11 07:03:16;;;;;;;;;;;;;;;16.12;50.68;98807.31;5035412;28;1260;-46
2023/03/11 07:05:43;;;;;;;;;;;;;;;15.90;51.52;98809.00;5043486;28;1906;-47
2023/03/11 07:08:10;;;;;;;;;;;;;;;15.81;51.85;98802.72;5038322;28;1150;-50
2023/03/11 07:10:36;;;;;;;;;;;;;;;15.67;51.93;98807.44;5055799;28;950;-46
2023/03/11 07:13:01;;;;;;;;;;;;;;;15.56;52.16;98801.44;5037900;28;1360;-43
2023/03/11 07:15:27;;;;;;;;;;;;;;;15.52;52.35;98792.22;5037957;28;1301;-48
2023/03/11 07:17:52;;;;;;;;;;;;;;;15.44;52.32;98790.25;5038103;28;1170;-48
2023/03/11 07:20:18;;;;;;;;;;;;;;;15.46;52.71;98796.22;5055232;28;1227;-45
2023/03/11 07:22:44;;;;;;;;;;;;;;;17.00;49.10;98789.03;5064322;28;906;-48
2023/03/11 07:25:09;;;;;;;;;;;;;;;16.36;50.60;98779.44;5058743;28;1906;-48
2023/03/11 07:27:35;;;;;;;;;;;;;;;15.98;51.61;98780.03;5057570;28;1168;-48
2023/03/11 07:30:01;;;;;;;;;;;;;;;15.78;52.07;98770.44;5059579;28;1539;-47
2023/03/11 07:32:26;;;;;;;;;;;;;;;15.68;52.49;98759.72;5059497;28;1211;-43
2023/03/11 07:34:52;;;;;;;;;;;;;;;15.60;52.57;98752.28;5059380;28;910;-46
2023/03/11 07:37:18;;;;;;;;;;;;;;;15.51;52.84;98752.25;5059713;28;1051;-45
2023/03/11 07:39:43;;;;;;;;;;;;;;;15.48;52.55;98750.94;5059652;28;1096;-43
2023/03/11 07:42:09;;;;;;;;;;;;;;;15.39;52.82;98750.91;5059062;28;1043;-47
2023/03/11 07:44:35;;;;;;;;;;;;;;;15.39;52.80;98736.44;5041473;28;1971;-46
2023/03/11 07:47:04;;;;;;;;;;;;;;;16.89;49.73;98743.81;5058852;28;894;-43
2023/03/11 07:49:29;;;;;;;;;;;;;;;16.40;50.99;98730.25;5059426;28;1055;-44
2023/03/11 07:51:55;;;;;;;;;;;;;;;15.92;52.34;98737.41;5064848;28;1056;-47
2023/03/11 07:54:20;;;;;;;;;;;;;;;15.75;52.78;98735.41;5059375;28;1298;-48
2023/03/11 07:56:46;;;;;;;;;;;;;;;15.71;52.76;98731.69;5058155;28;1112;-48
2023/03/11 07:59:11;;;;;;;;;;;;;;;15.56;52.81;98722.78;5059119;28;1021;-44
2023/03/11 08:01:39;;;;;;;;;;;;;;;15.51;52.96;98711.97;5059355;28;1031;-41
2023/03/11 08:04:06;;;;;;;;;;;;;;;15.47;52.95;98704.72;5058724;28;1135;-42
2023/03/11 08:06:32;;;;;;;;;;;;;;;16.30;51.46;98697.66;5058654;28;1973;-47
2023/03/11 08:08:58;;;;;;;;;;;;;;;17.01;49.61;98694.56;5058561;28;1167;-47
2023/03/11 08:11:23;;;;;;;;;;;;;;;16.23;51.61;98690.72;5058773;28;1075;-48
2023/03/11 08:13:49;;;;;;;;;;;;;;;15.99;52.33;98693.09;5058911;28;1191;-45
2023/03/11 08:16:16;;;;;;;;;;;;;;;15.84;52.50;98688.91;5058690;28;1067;-47
2023/03/11 08:18:41;;;;;;;;;;;;;;;15.71;52.98;98691.41;5058137;28;1179;-50
2023/03/11 08:21:07;;;;;;;;;;;;;;;15.63;53.30;98681.25;5045206;28;984;-45
2023/03/11 08:23:33;;;;;;;;;;;;;;;15.55;53.25;98691.03;5058353;28;1214;-45
2023/03/11 08:26:01;;;;;;;;;;;;;;;15.49;53.27;98697.78;5044992;28;1914;-44
2023/03/11 08:28:27;;;;;;;;;;;;;;;15.46;53.23;98687.47;5058135;28;1191;-45
2023/03/11 08:30:52;;;;;;;;;;;;;;;16.65;51.41;98692.97;5058842;28;1032;-45
2023/03/11 08:33:18;;;;;;;;;;;;;;;16.60;51.40;98685.69;5058076;28;1092;-46
2023/03/11 08:35:43;;;;;;;;;;;;;;;16.06;52.66;98683.28;5058723;28;1071;-49
2023/03/11 08:38:09;;;;;;;;;;;;;;;15.80;53.33;98672.28;5057608;28;1219;-45
2023/03/11 08:40:35;;;;;;;;;;;;;;;15.70;53.42;98665.13;5057986;28;1059;-46
2023/03/11 08:43:00;;;;;;;;;;;;;;;15.57;53.72;98668.81;5058061;28;1298;-44
2023/03/11 08:45:26;;;;;;;;;;;;;;;15.53;53.70;98676.06;5057919;28;1988;-42
2023/03/11 08:47:51;;;;;;;;;;;;;;;15.48;53.65;98674.25;5057944;28;1155;-41
2023/03/11 08:50:17;;;;;;;;;;;;;;;15.41;53.75;98673.91;5057919;28;1100;-48
2023/03/11 08:52:43;;;;;;;;;;;;;;;16.83;51.56;98674.53;5058080;28;1127;-46
2023/03/11 08:55:10;;;;;;;;;;;;;;;16.72;51.54;98671.31;5057681;28;1084;-46
2023/03/11 08:57:37;;;;;;;;;;;;;;;16.09;52.82;98665.41;5043399;28;1128;-44
2023/03/11 09:00:03;;;;;;;;;;;;;;;15.86;53.57;98661.97;5058061;28;1152;-47
2023/03/11 09:02:29;;;;;;;;;;;;;;;15.71;53.67;98658.53;5058046;28;1026;-46
2023/03/11 09:04:54;;;;;;;;;;;;;;;15.63;53.62;98662.06;5057595;28;1909;-43
2023/03/11 09:07:20;;;;;;;;;;;;;;;15.51;54.04;98656.38;5057808;28;1127;-47
2023/03/11 09:09:45;;;;;;;;;;;;;;;15.43;54.04;98671.69;5057410;28;1088;-45
2023/03/11 09:12:14;;;;;;;;;;;;;;;15.48;54.08;98678.94;5057325;28;1060;-46
2023/03/11 09:14:40;;;;;;;;;;;;;;;16.98;51.18;98662.22;5058271;28;1079;-46
2023/03/11 09:17:06;;;;;;;;;;;;;;;16.32;52.58;98663.28;5058555;28;1001;-44
2023/03/11 09:19:31;;;;;;;;;;;;;;;15.95;53.31;98665.53;5057082;28;1108;-44
2023/03/11 09:21:59;;;;;;;;;;;;;;;15.71;53.84;98679.63;5057260;28;1175;-42
2023/03/11 09:24:24;;;;;;;;;;;;;;;15.59;53.76;98690.44;5057543;28;1975;-50
2023/03/11 09:26:50;;;;;;;;;;;;;;;15.44;54.13;98695.19;5057362;28;1044;-47
2023/03/11 09:29:15;;;;;;;;;;;;;;;15.42;54.04;98699.38;5056725;28;1033;-46
2023/03/11 09:31:41;;;;;;;;;;;;;;;15.34;53.97;98698.22;5057357;28;1012;-44
2023/03/11 09:34:07;;;;;;;;;;;;;;;16.75;51.62;98714.56;5056781;28;1047;-46
2023/03/11 09:36:32;;;;;;;;;;;;;;;16.54;51.88;98714.44;5056933;28;1040;-43
2023/03/11 09:38:59;;;;;;;;;;;;;;;16.01;53.20;98729.25;5062634;28;1055;-45
2023/03/11 09:41:25;;;;;;;;;;;;;;;15.78;53.63;98725.75;5065362;28;1051;-43
2023/03/11 09:43:50;;;;;;;;;;;;;;;15.63;54.03;98724.28;5055598;28;1111;-47
2023/03/11 09:46:34;;;;;;;;;;;;;;;15.50;54.04;98713.13;5059733;28;1980;-44
2023/03/11 09:49:07;;;;;;;;;;;;;;;15.39;53.94;98715.31;5063235;28;1175;-48
2023/03/11 09:51:35;;;;;;;;;;;;;;;16.47;52.47;98718.81;5056844;28;1036;-45
2023/03/11 09:54:04;;;;;;;;;;;;;;;16.76;51.51;98721.69;5056599;28;1116;-43
2023/03/11 09:56:30;;;;;;;;;;;;;;;16.04;53.24;98706.66;5043648;28;1259;-48
2023/03/11 09:58:56;;;;;;;;;;;;;;;15.78;53.66;98712.06;5056460;28;1082;-48
2023/03/11 10:01:26;;;;;;;;;;;;;;;15.65;53.79;98719.28;5038960;28;1041;-47
2023/03/11 10:03:54;;;;;;;;;;;;;;;15.55;53.81;98721.16;5038733;28;1164;-44
2023/03/11 10:06:23;;;;;;;;;;;;;;;15.45;53.94;98717.94;5063678;28;1902;-47
2023/03/11 10:09:08;;;;;;;;;;;;;;;15.66;53.95;98708.00;5056477;28;1087;-47
2023/03/11 10:11:39;;;;;;;;;;;;;;;17.24;50.52;98703.34;5055765;28;1043;-48
2023/03/11 10:14:13;;;;;;;;;;;;;;;16.38;52.52;98700.41;5056219;28;1128;-45
2023/03/11 10:16:42;;;;;;;;;;;;;;;15.88;53.58;98692.63;5056947;28;1148;-45
2023/03/11 10:19:15;;;;;;;;;;;;;;;15.80;53.76;98709.84;5056688;28;1179;-48
2023/03/11 10:21:44;;;;;;;;;;;;;;;15.69;53.65;98712.84;5038398;28;1046;-49
2023/03/11 10:24:13;;;;;;;;;;;;;;;15.59;53.80;98707.66;5056175;28;891;-48
2023/03/11 10:26:58;;;;;;;;;;;;;;;15.47;54.14;98688.28;5056073;28;1910;-47
2023/03/11 10:29:23;;;;;;;;;;;;;;;15.41;53.98;98668.44;5041558;28;1474;-49
2023/03/11 10:32:05;;;;;;;;;;;;;;;16.84;51.82;98665.16;5059978;28;1119;-46
2023/03/11 10:34:38;;;;;;;;;;;;;;;16.50;52.31;98666.03;5022059;28;1177;-47
2023/03/11 10:37:17;;;;;;;;;;;;;;;15.98;53.60;98653.94;5051651;28;1083;-46
2023/03/11 10:39:43;;;;;;;;;;;;;;;15.73;54.03;98661.75;5037876;28;1334;-47
2023/03/11 10:42:11;;;;;;;;;;;;;;;15.63;53.99;98670.28;5037925;28;1199;-43
2023/03/11 10:44:37;;;;;;;;;;;;;;;15.54;54.01;98672.19;5038348;28;1906;-46
2023/03/11 10:47:03;;;;;;;;;;;;;;;15.43;54.10;98670.88;5055700;28;1049;-49
2023/03/11 10:49:28;;;;;;;;;;;;;;;15.94;53.96;98663.91;5055850;28;1155;-45
2023/03/11 10:51:55;;;;;;;;;;;;;;;17.18;50.93;98660.72;5038090;28;1112;-45
2023/03/11 10:54:21;;;;;;;;;;;;;;;16.23;53.17;98660.56;5058050;28;1298;-46
2023/03/11 10:56:49;;;;;;;;;;;;;;;15.97;53.66;98649.56;5076057;28;1222;-42
2023/03/11 10:59:25;;;;;;;;;;;;;;;15.80;54.20;98638.59;5046149;28;1214;-46
2023/03/11 11:01:57;;;;;;;;;;;;;;;15.63;54.16;98639.34;5058029;28;1255;-44
2023/03/11 11:04:36;;;;;;;;;;;;;;;15.55;54.26;98629.97;5060038;28;1982;-45
2023/03/11 11:07:20;;;;;;;;;;;;;;;15.50;54.17;98627.38;5042277;28;1246;-44
2023/03/11 11:09:46;;;;;;;;;;;;;;;15.67;54.29;98621.94;5059941;28;1214;-45
2023/03/11 11:12:16;;;;;;;;;;;;;;;17.09;51.38;98608.56;5059374;28;1253;-44
2023/03/11 11:14:42;;;;;;;;;;;;;;;16.31;53.30;98606.03;5060287;28;1043;-45
2023/03/11 11:17:16;;;;;;;;;;;;;;;15.90;54.26;98608.13;5059928;28;1076;-45
2023/03/11 11:19:45;;;;;;;;;;;;;;;15.77;54.22;98609.03;5042548;28;1111;-42
2023/03/11 11:22:12;;;;;;;;;;;;;;;15.64;54.32;98599.84;5059696;28;1163;-44
2023/03/11 11:24:41;;;;;;;;;;;;;;;15.51;54.46;98590.66;5041805;28;1898;-45
2023/03/11 11:27:10;;;;;;;;;;;;;;;15.45;54.30;98597.41;5041975;28;1049;-45
2023/03/11 11:29:36;;;;;;;;;;;;;;;15.40;54.37;98598.34;5059952;28;1040;-44
2023/03/11 11:32:24;;;;;;;;;;;;;;;16.84;52.29;98609.44;5059697;28;1147;-42
2023/03/11 11:34:57;;;;;;;;;;;;;;;16.28;53.67;98599.25;5048650;28;1605;-47
2023/03/11 11:37:25;;;;;;;;;;;;;;;15.89;54.11;98590.91;5059867;28;1198;-43
2023/03/11 11:39:55;;;;;;;;;;;;;;;15.69;54.64;98600.50;5042059;28;1140;-41
2023/03/11 11:42:21;;;;;;;;;;;;;;;15.60;54.66;98596.97;5059642;28;1025;-43
2023/03/11 11:44:49;;;;;;;;;;;;;;;15.52;54.31;98593.06;5027880;28;1898;-46
2023/03/11 11:47:16;;;;;;;;;;;;;;;15.43;54.45;98595.00;5041648;28;1123;-48
2023/03/11 11:49:53;;;;;;;;;;;;;;;15.36;54.88;98600.94;5041630;28;1064;-42
2023/03/11 11:52:19;;;;;;;;;;;;;;;16.91;52.39;98598.78;5059010;28;1139;-48
2023/03/11 11:55:07;;;;;;;;;;;;;;;16.43;53.03;98598.72;5041066;28;1176;-45
2023/03/11 11:57:32;;;;;;;;;;;;;;;15.90;54.31;98602.66;5041619;28;1248;-47
2023/03/11 11:59:58;;;;;;;;;;;;;;;15.72;54.68;98599.06;5041015;28;898;-44
2023/03/11 12:02:41;;;;;;;;;;;;;;;15.62;54.67;98602.91;5058946;28;1106;-45
2023/03/11 12:05:07;;;;;;;;;;;;;;;15.51;54.73;98607.09;5058898;28;1898;-46
2023/03/11 12:07:46;;;;;;;;;;;;;;;16.70;52.84;98604.16;5059101;28;1231;-46
2023/03/11 12:10:15;;;;;;;;;;;;;;;16.46;53.04;98607.47;5059487;28;1071;-46
2023/03/11 12:12:41;;;;;;;;;;;;;;;16.00;54.38;98613.28;5054013;28;893;-44
2023/03/11 12:15:10;;;;;;;;;;;;;;;15.78;54.62;98611.50;5058884;28;1087;-46
2023/03/11 12:17:36;;;;;;;;;;;;;;;15.66;54.53;98614.06;5059183;28;1083;-47
2023/03/11 12:20:23;;;;;;;;;;;;;;;15.54;54.29;98615.47;5059396;28;1048;-45
2023/03/11 12:23:07;;;;;;;;;;;;;;;15.47;54.29;98614.31;5058100;28;1448;-47
2023/03/11 12:25:37;;;;;;;;;;;;;;;16.74;52.88;98608.66;5058156;28;1906;-43
2023/03/11 12:28:13;;;;;;;;;;;;;;;16.74;52.64;98608.66;5058875;28;1167;-45
2023/03/11 12:30:45;;;;;;;;;;;;;;;16.08;53.99;98617.97;5028985;28;1374;-45
2023/03/11 12:33:37;;;;;;;;;;;;;;;15.82;54.51;98612.50;5058359;28;1122;-45
2023/03/11 12:36:03;;;;;;;;;;;;;;;15.66;54.61;98614.84;5034523;28;1434;-43
2023/03/11 12:38:31;;;;;;;;;;;;;;;15.56;54.65;98612.44;5040742;28;1196;-43
2023/03/11 12:41:00;;;;;;;;;;;;;;;15.50;54.43;98606.28;5058657;28;1052;-45
2023/03/11 12:43:34;;;;;;;;;;;;;;;15.40;54.51;98607.41;5058554;28;1209;-44
2023/03/11 12:46:00;;;;;;;;;;;;;;;16.36;53.63;98606.66;5057583;28;1909;-44
2023/03/11 12:48:26;;;;;;;;;;;;;;;16.66;53.00;98600.47;5058518;28;943;-43
2023/03/11 12:50:51;;;;;;;;;;;;;;;16.02;54.27;98602.81;5058539;28;1120;-44
2023/03/11 12:53:17;;;;;;;;;;;;;;;15.76;54.60;98604.72;5040223;28;1148;-42
2023/03/11 12:56:01;;;;;;;;;;;;;;;15.64;54.81;98603.41;5057895;28;1115;-44
2023/03/11 12:58:30;;;;;;;;;;;;;;;15.48;54.86;98607.72;5040627;28;1187;-47
2023/03/11 13:01:08;;;;;;;;;;;;;;;15.45;54.52;98592.75;5057489;28;1048;-45